sensor_id;sensor_type;location;lat;lon;timestamp;temperature;humidity
4054;DHT22;2042;47.956;9.222;2022-10-31T00:00:22;6.50;14.90
4054;DHT22;2042;47.956;9.222;2022-10-31T00:02:47;6.40;14.80
4054;DHT22;2042;47.956;9.222;2022-10-31T00:05:13;6.40;14.70
4054;DHT22;2042;47.956;9.222;2022-10-31T00:07:39;6.40;14.80
4054;DHT22;2042;47.956;9.222;2022-10-31T00:10:05;6.40;14.90
4054;DHT22;2042;47.956;9.222;2022-10-31T00:12:31;6.40;14.90
4054;DHT22;2042;47.956;9.222;2022-10-31T00:14:57;6.40;15.00
4054;DHT22;2042;47.956;9.222;2022-10-31T00:17:22;6.40;15.00
4054;DHT22;2042;47.956;9.222;2022-10-31T00:19:48;6.30;14.90
4054;DHT22;2042;47.956;9.222;2022-10-31T00:22:14;6.40;15.10
4054;DHT22;2042;47.956;9.222;2022-10-31T00:24:39;6.40;15.10
4054;DHT22;2042;47.956;9.222;2022-10-31T00:27:05;6.50;15.10
4054;DHT22;2042;47.956;9.222;2022-10-31T00:29:31;6.40;15.10
4054;DHT22;2042;47.956;9.222;2022-10-31T00:31:56;6.40;15.10
4054;DHT22;2042;47.956;9.222;2022-10-31T00:34:22;6.40;15.10
4054;DHT22;2042;47.956;9.222;2022-10-31T00:36:48;6.40;15.10
4054;DHT22;2042;47.956;9.222;2022-10-31T00:39:13;6.30;15.00
4054;DHT22;2042;47.956;9.222;2022-10-31T00:41:39;6.40;15.10
4054;DHT22;2042;47.956;9.222;2022-10-31T00:44:04;6.40;15.10
4054;DHT22;2042;47.956;9.222;2022-10-31T00:46:30;6.40;15.10
4054;DHT22;2042;47.956;9.222;2022-10-31T00:48:59;6.30;15.00
4054;DHT22;2042;47.956;9.222;2022-10-31T00:51:24;6.30;15.00
4054;DHT22;2042;47.956;9.222;2022-10-31T00:53:50;6.30;15.10
4054;DHT22;2042;47.956;9.222;2022-10-31T00:56:15;6.40;15.20
4054;DHT22;2042;47.956;9.222;2022-10-31T00:58:42;6.30;15.10
4054;DHT22;2042;47.956;9.222;2022-10-31T01:01:07;6.40;15.20
4054;DHT22;2042;47.956;9.222;2022-10-31T01:03:33;6.30;15.20
4054;DHT22;2042;47.956;9.222;2022-10-31T01:08:32;6.40;15.40
4054;DHT22;2042;47.956;9.222;2022-10-31T01:13:37;6.60;15.80
4054;DHT22;2042;47.956;9.222;2022-10-31T01:16:04;6.60;16.00
4054;DHT22;2042;47.956;9.222;2022-10-31T01:18:30;6.70;16.00
4054;DHT22;2042;47.956;9.222;2022-10-31T01:21:01;6.80;16.20
4054;DHT22;2042;47.956;9.222;2022-10-31T01:23:28;6.80;16.20
4054;DHT22;2042;47.956;9.222;2022-10-31T01:26:09;6.80;16.20
4054;DHT22;2042;47.956;9.222;2022-10-31T01:28:42;6.80;16.70
4054;DHT22;2042;47.956;9.222;2022-10-31T01:31:08;6.80;16.20
4054;DHT22;2042;47.956;9.222;2022-10-31T01:33:35;6.80;16.30
4054;DHT22;2042;47.956;9.222;2022-10-31T01:36:10;6.80;16.30
4054;DHT22;2042;47.956;9.222;2022-10-31T01:38:36;6.80;16.30
4054;DHT22;2042;47.956;9.222;2022-10-31T01:41:02;6.80;16.30
4054;DHT22;2042;47.956;9.222;2022-10-31T01:46:12;6.80;16.30
4054;DHT22;2042;47.956;9.222;2022-10-31T01:48:39;6.80;16.30
4054;DHT22;2042;47.956;9.222;2022-10-31T01:51:06;6.70;16.10
4054;DHT22;2042;47.956;9.222;2022-10-31T01:53:32;6.60;15.90
4054;DHT22;2042;47.956;9.222;2022-10-31T01:56:04;6.50;15.80
4054;DHT22;2042;47.956;9.222;2022-10-31T01:58:31;6.50;15.80
4054;DHT22;2042;47.956;9.222;2022-10-31T02:00:59;6.50;15.90
4054;DHT22;2042;47.956;9.222;2022-10-31T02:03:26;6.40;15.80
4054;DHT22;2042;47.956;9.222;2022-10-31T02:05:54;6.50;16.00
4054;DHT22;2042;47.956;9.222;2022-10-31T02:08:29;6.40;15.80
4054;DHT22;2042;47.956;9.222;2022-10-31T02:10:57;6.40;15.90
4054;DHT22;2042;47.956;9.222;2022-10-31T02:13:23;6.30;15.80
4054;DHT22;2042;47.956;9.222;2022-10-31T02:15:55;6.30;15.90
4054;DHT22;2042;47.956;9.222;2022-10-31T02:18:23;6.40;16.00
4054;DHT22;2042;47.956;9.222;2022-10-31T02:21:19;6.40;16.10
4054;DHT22;2042;47.956;9.222;2022-10-31T02:27:13;6.50;16.30
4054;DHT22;2042;47.956;9.222;2022-10-31T02:45:50;6.90;16.80
4054;DHT22;2042;47.956;9.222;2022-10-31T02:48:24;6.90;16.90
4054;DHT22;2042;47.956;9.222;2022-10-31T02:51:01;6.90;16.90
4054;DHT22;2042;47.956;9.222;2022-10-31T02:53:35;6.90;16.90
4054;DHT22;2042;47.956;9.222;2022-10-31T02:56:06;6.90;16.90
4054;DHT22;2042;47.956;9.222;2022-10-31T02:58:37;6.90;16.90
4054;DHT22;2042;47.956;9.222;2022-10-31T03:04:16;6.80;16.80
4054;DHT22;2042;47.956;9.222;2022-10-31T03:07:05;6.80;16.80
4054;DHT22;2042;47.956;9.222;2022-10-31T03:09:44;6.70;16.80
4054;DHT22;2042;47.956;9.222;2022-10-31T03:15:23;6.80;16.90
4054;DHT22;2042;47.956;9.222;2022-10-31T03:18:40;6.80;16.90
4054;DHT22;2042;47.956;9.222;2022-10-31T03:21:24;6.80;16.90
4054;DHT22;2042;47.956;9.222;2022-10-31T03:23:44;6.80;16.90
4054;DHT22;2042;47.956;9.222;2022-10-31T03:26:11;6.80;16.90
4054;DHT22;2042;47.956;9.222;2022-10-31T03:28:44;6.90;17.00
4054;DHT22;2042;47.956;9.222;2022-10-31T03:31:14;6.90;17.00
4054;DHT22;2042;47.956;9.222;2022-10-31T03:33:42;6.90;17.00
4054;DHT22;2042;47.956;9.222;2022-10-31T03:36:11;6.90;17.10
4054;DHT22;2042;47.956;9.222;2022-10-31T03:38:41;6.90;17.10
4054;DHT22;2042;47.956;9.222;2022-10-31T03:41:12;7.00;17.20
4054;DHT22;2042;47.956;9.222;2022-10-31T03:43:43;7.00;17.20
4054;DHT22;2042;47.956;9.222;2022-10-31T03:46:11;7.00;17.20
4054;DHT22;2042;47.956;9.222;2022-10-31T03:48:38;7.00;17.20
4054;DHT22;2042;47.956;9.222;2022-10-31T03:53:47;7.00;17.30
4054;DHT22;2042;47.956;9.222;2022-10-31T03:56:33;7.00;17.30
4054;DHT22;2042;47.956;9.222;2022-10-31T04:01:30;7.10;17.40
4054;DHT22;2042;47.956;9.222;2022-10-31T04:03:58;7.10;17.40
4054;DHT22;2042;47.956;9.222;2022-10-31T04:06:25;7.10;17.50
4054;DHT22;2042;47.956;9.222;2022-10-31T04:08:56;7.10;17.50
4054;DHT22;2042;47.956;9.222;2022-10-31T04:11:25;7.10;17.50
4054;DHT22;2042;47.956;9.222;2022-10-31T04:13:53;7.20;17.50
4054;DHT22;2042;47.956;9.222;2022-10-31T04:16:21;7.20;17.60
4054;DHT22;2042;47.956;9.222;2022-10-31T04:18:47;7.20;17.60
4054;DHT22;2042;47.956;9.222;2022-10-31T04:21:12;7.20;17.60
4054;DHT22;2042;47.956;9.222;2022-10-31T04:23:38;7.10;17.60
4054;DHT22;2042;47.956;9.222;2022-10-31T04:26:04;7.10;17.60
4054;DHT22;2042;47.956;9.222;2022-10-31T04:28:29;7.00;17.50
4054;DHT22;2042;47.956;9.222;2022-10-31T04:30:55;7.00;17.50
4054;DHT22;2042;47.956;9.222;2022-10-31T04:33:21;7.00;17.50
4054;DHT22;2042;47.956;9.222;2022-10-31T04:35:47;7.00;17.50
4054;DHT22;2042;47.956;9.222;2022-10-31T04:38:12;7.00;17.70
4054;DHT22;2042;47.956;9.222;2022-10-31T04:40:38;7.00;17.60
4054;DHT22;2042;47.956;9.222;2022-10-31T04:43:04;6.90;17.50
4054;DHT22;2042;47.956;9.222;2022-10-31T04:45:29;7.00;17.60
4054;DHT22;2042;47.956;9.222;2022-10-31T04:47:56;7.00;17.60
4054;DHT22;2042;47.956;9.222;2022-10-31T04:50:22;7.00;17.60
4054;DHT22;2042;47.956;9.222;2022-10-31T04:52:48;7.00;17.50
4054;DHT22;2042;47.956;9.222;2022-10-31T04:55:14;7.00;17.50
4054;DHT22;2042;47.956;9.222;2022-10-31T04:57:41;7.10;17.60
4054;DHT22;2042;47.956;9.222;2022-10-31T05:00:07;7.10;17.60
4054;DHT22;2042;47.956;9.222;2022-10-31T05:02:33;7.10;17.70
4054;DHT22;2042;47.956;9.222;2022-10-31T05:04:59;7.10;17.60
4054;DHT22;2042;47.956;9.222;2022-10-31T05:07:24;7.10;17.70
4054;DHT22;2042;47.956;9.222;2022-10-31T05:09:50;7.00;17.60
4054;DHT22;2042;47.956;9.222;2022-10-31T05:12:16;7.10;17.70
4054;DHT22;2042;47.956;9.222;2022-10-31T05:14:41;7.10;17.70
4054;DHT22;2042;47.956;9.222;2022-10-31T05:17:07;7.10;17.70
4054;DHT22;2042;47.956;9.222;2022-10-31T05:19:32;7.00;17.70
4054;DHT22;2042;47.956;9.222;2022-10-31T05:21:58;7.00;17.70
4054;DHT22;2042;47.956;9.222;2022-10-31T05:24:24;7.00;17.60
4054;DHT22;2042;47.956;9.222;2022-10-31T05:26:49;7.00;17.60
4054;DHT22;2042;47.956;9.222;2022-10-31T05:29:15;7.00;17.60
4054;DHT22;2042;47.956;9.222;2022-10-31T05:31:41;7.00;17.70
4054;DHT22;2042;47.956;9.222;2022-10-31T05:34:06;7.00;17.60
4054;DHT22;2042;47.956;9.222;2022-10-31T05:36:32;7.10;17.70
4054;DHT22;2042;47.956;9.222;2022-10-31T05:38:57;7.10;17.70
4054;DHT22;2042;47.956;9.222;2022-10-31T05:41:23;7.10;17.70
4054;DHT22;2042;47.956;9.222;2022-10-31T05:43:49;7.20;17.70
4054;DHT22;2042;47.956;9.222;2022-10-31T05:46:15;7.20;17.70
4054;DHT22;2042;47.956;9.222;2022-10-31T05:48:40;7.20;17.70
4054;DHT22;2042;47.956;9.222;2022-10-31T05:51:06;7.30;17.80
4054;DHT22;2042;47.956;9.222;2022-10-31T05:53:32;7.30;17.90
4054;DHT22;2042;47.956;9.222;2022-10-31T05:55:57;7.20;17.90
4054;DHT22;2042;47.956;9.222;2022-10-31T05:58:23;7.20;17.90
4054;DHT22;2042;47.956;9.222;2022-10-31T06:00:49;7.10;17.80
4054;DHT22;2042;47.956;9.222;2022-10-31T06:03:14;7.20;17.80
4054;DHT22;2042;47.956;9.222;2022-10-31T06:05:40;7.20;17.80
4054;DHT22;2042;47.956;9.222;2022-10-31T06:08:05;7.20;17.90
4054;DHT22;2042;47.956;9.222;2022-10-31T06:10:31;7.20;17.90
4054;DHT22;2042;47.956;9.222;2022-10-31T06:12:56;7.20;17.90
4054;DHT22;2042;47.956;9.222;2022-10-31T06:15:22;7.20;17.90
4054;DHT22;2042;47.956;9.222;2022-10-31T06:18:00;7.10;17.80
4054;DHT22;2042;47.956;9.222;2022-10-31T06:20:26;7.20;17.90
4054;DHT22;2042;47.956;9.222;2022-10-31T06:22:51;7.20;17.80
4054;DHT22;2042;47.956;9.222;2022-10-31T06:25:17;7.30;17.80
4054;DHT22;2042;47.956;9.222;2022-10-31T06:27:43;7.40;17.80
4054;DHT22;2042;47.956;9.222;2022-10-31T06:30:09;7.50;17.90
4054;DHT22;2042;47.956;9.222;2022-10-31T06:32:35;7.60;17.90
4054;DHT22;2042;47.956;9.222;2022-10-31T06:35:00;7.70;18.00
4054;DHT22;2042;47.956;9.222;2022-10-31T06:37:26;7.70;18.00
4054;DHT22;2042;47.956;9.222;2022-10-31T06:39:52;7.80;18.10
4054;DHT22;2042;47.956;9.222;2022-10-31T06:42:17;7.90;18.10
4054;DHT22;2042;47.956;9.222;2022-10-31T06:44:43;8.00;18.10
4054;DHT22;2042;47.956;9.222;2022-10-31T06:47:09;8.10;18.10
4054;DHT22;2042;47.956;9.222;2022-10-31T06:49:35;8.20;18.20
4054;DHT22;2042;47.956;9.222;2022-10-31T06:52:00;8.20;18.30
4054;DHT22;2042;47.956;9.222;2022-10-31T06:54:26;8.20;18.40
4054;DHT22;2042;47.956;9.222;2022-10-31T06:56:52;8.20;18.50
4054;DHT22;2042;47.956;9.222;2022-10-31T06:59:18;8.20;19.90
4054;DHT22;2042;47.956;9.222;2022-10-31T07:01:43;8.20;19.90
4054;DHT22;2042;47.956;9.222;2022-10-31T07:04:11;8.30;20.00
4054;DHT22;2042;47.956;9.222;2022-10-31T07:06:37;8.50;20.00
4054;DHT22;2042;47.956;9.222;2022-10-31T07:09:03;8.70;20.10
4054;DHT22;2042;47.956;9.222;2022-10-31T07:11:28;8.90;19.90
4054;DHT22;2042;47.956;9.222;2022-10-31T07:13:55;9.20;19.80
4054;DHT22;2042;47.956;9.222;2022-10-31T08:12:25;17.30;1.00
4054;DHT22;2042;47.956;9.222;2022-10-31T08:14:50;17.80;1.00
4054;DHT22;2042;47.956;9.222;2022-10-31T08:17:16;18.10;1.00
4054;DHT22;2042;47.956;9.222;2022-10-31T08:19:42;18.50;1.00
4054;DHT22;2042;47.956;9.222;2022-10-31T08:22:07;19.10;1.00
4054;DHT22;2042;47.956;9.222;2022-10-31T08:24:33;19.50;1.00
4054;DHT22;2042;47.956;9.222;2022-10-31T08:26:58;20.00;1.00
4054;DHT22;2042;47.956;9.222;2022-10-31T08:29:24;20.30;1.00
4054;DHT22;2042;47.956;9.222;2022-10-31T08:31:50;20.40;1.00
4054;DHT22;2042;47.956;9.222;2022-10-31T08:34:15;20.50;1.00
4054;DHT22;2042;47.956;9.222;2022-10-31T08:36:41;20.60;1.00
4054;DHT22;2042;47.956;9.222;2022-10-31T08:39:10;20.90;1.00
4054;DHT22;2042;47.956;9.222;2022-10-31T08:41:35;21.10;1.00
4054;DHT22;2042;47.956;9.222;2022-10-31T08:44:01;21.20;1.00
4054;DHT22;2042;47.956;9.222;2022-10-31T08:46:27;21.20;1.00
4054;DHT22;2042;47.956;9.222;2022-10-31T08:48:52;21.10;1.00
4054;DHT22;2042;47.956;9.222;2022-10-31T08:51:18;21.00;1.00
4054;DHT22;2042;47.956;9.222;2022-10-31T08:53:44;21.20;1.00
4054;DHT22;2042;47.956;9.222;2022-10-31T08:56:09;21.50;1.00
4054;DHT22;2042;47.956;9.222;2022-10-31T08:58:35;21.80;1.00
4054;DHT22;2042;47.956;9.222;2022-10-31T09:01:01;21.80;1.00
4054;DHT22;2042;47.956;9.222;2022-10-31T09:03:29;21.60;1.00
4054;DHT22;2042;47.956;9.222;2022-10-31T09:06:00;21.40;1.00
4054;DHT22;2042;47.956;9.222;2022-10-31T09:08:26;21.80;1.00
4054;DHT22;2042;47.956;9.222;2022-10-31T09:10:52;22.30;1.00
4054;DHT22;2042;47.956;9.222;2022-10-31T09:13:19;22.70;1.00
4054;DHT22;2042;47.956;9.222;2022-10-31T09:15:47;23.20;1.00
4054;DHT22;2042;47.956;9.222;2022-10-31T09:18:14;23.30;1.00
4054;DHT22;2042;47.956;9.222;2022-10-31T09:20:41;23.10;1.00
4054;DHT22;2042;47.956;9.222;2022-10-31T09:23:11;23.20;1.00
4054;DHT22;2042;47.956;9.222;2022-10-31T09:25:37;23.60;1.00
4054;DHT22;2042;47.956;9.222;2022-10-31T09:28:04;24.10;1.00
4054;DHT22;2042;47.956;9.222;2022-10-31T09:30:33;24.60;1.00
4054;DHT22;2042;47.956;9.222;2022-10-31T09:33:05;25.30;1.00
4054;DHT22;2042;47.956;9.222;2022-10-31T09:35:31;25.90;1.00
4054;DHT22;2042;47.956;9.222;2022-10-31T09:38:03;26.50;1.00
4054;DHT22;2042;47.956;9.222;2022-10-31T09:40:39;27.10;1.00
4054;DHT22;2042;47.956;9.222;2022-10-31T09:48:56;27.80;1.00
4054;DHT22;2042;47.956;9.222;2022-10-31T09:51:30;27.80;1.00
4054;DHT22;2042;47.956;9.222;2022-10-31T09:54:04;27.90;1.00
4054;DHT22;2042;47.956;9.222;2022-10-31T09:56:32;27.90;1.00
4054;DHT22;2042;47.956;9.222;2022-10-31T09:59:04;27.80;1.00
4054;DHT22;2042;47.956;9.222;2022-10-31T10:02:13;27.80;1.00
4054;DHT22;2042;47.956;9.222;2022-10-31T10:16:19;30.20;1.00
4054;DHT22;2042;47.956;9.222;2022-10-31T10:18:52;30.80;1.00
4054;DHT22;2042;47.956;9.222;2022-10-31T10:27:32;32.30;1.00
4054;DHT22;2042;47.956;9.222;2022-10-31T10:32:34;33.10;1.00
4054;DHT22;2042;47.956;9.222;2022-10-31T10:35:27;33.00;1.00
4054;DHT22;2042;47.956;9.222;2022-10-31T10:38:15;33.00;1.00
4054;DHT22;2042;47.956;9.222;2022-10-31T10:45:58;32.90;1.00
4054;DHT22;2042;47.956;9.222;2022-10-31T10:48:56;33.10;1.00
4054;DHT22;2042;47.956;9.222;2022-10-31T10:51:37;33.80;1.00
4054;DHT22;2042;47.956;9.222;2022-10-31T10:59:52;33.70;1.00
4054;DHT22;2042;47.956;9.222;2022-10-31T11:02:26;33.80;1.00
4054;DHT22;2042;47.956;9.222;2022-10-31T11:04:57;33.50;1.00
4054;DHT22;2042;47.956;9.222;2022-10-31T11:07:23;33.70;1.00
4054;DHT22;2042;47.956;9.222;2022-10-31T11:09:49;33.90;1.00
4054;DHT22;2042;47.956;9.222;2022-10-31T11:12:31;33.60;1.00
4054;DHT22;2042;47.956;9.222;2022-10-31T11:15:00;32.70;1.00
4054;DHT22;2042;47.956;9.222;2022-10-31T11:17:34;31.20;1.00
4054;DHT22;2042;47.956;9.222;2022-10-31T11:22:44;28.00;1.00
4054;DHT22;2042;47.956;9.222;2022-10-31T11:27:45;25.70;1.00
4054;DHT22;2042;47.956;9.222;2022-10-31T11:30:13;24.80;1.00
4054;DHT22;2042;47.956;9.222;2022-10-31T11:32:50;24.10;1.00
4054;DHT22;2042;47.956;9.222;2022-10-31T11:35:21;23.70;1.00
4054;DHT22;2042;47.956;9.222;2022-10-31T11:37:50;23.40;1.00
4054;DHT22;2042;47.956;9.222;2022-10-31T11:40:22;23.20;1.00
4054;DHT22;2042;47.956;9.222;2022-10-31T11:42:49;23.00;1.00
4054;DHT22;2042;47.956;9.222;2022-10-31T11:45:17;22.80;1.00
4054;DHT22;2042;47.956;9.222;2022-10-31T11:47:48;22.50;1.00
4054;DHT22;2042;47.956;9.222;2022-10-31T11:50:23;22.20;1.00
4054;DHT22;2042;47.956;9.222;2022-10-31T11:52:51;22.00;1.00
4054;DHT22;2042;47.956;9.222;2022-10-31T11:55:34;21.70;1.00
4054;DHT22;2042;47.956;9.222;2022-10-31T11:58:01;21.40;1.00
4054;DHT22;2042;47.956;9.222;2022-10-31T12:00:29;21.20;1.00
4054;DHT22;2042;47.956;9.222;2022-10-31T12:08:31;20.60;1.00
4054;DHT22;2042;47.956;9.222;2022-10-31T12:19:40;20.40;1.00
4054;DHT22;2042;47.956;9.222;2022-10-31T12:22:24;20.50;1.00
4054;DHT22;2042;47.956;9.222;2022-10-31T12:27:55;20.40;1.00
4054;DHT22;2042;47.956;9.222;2022-10-31T12:39:20;20.00;1.00
4054;DHT22;2042;47.956;9.222;2022-10-31T13:01:53;20.80;1.00
4054;DHT22;2042;47.956;9.222;2022-10-31T13:04:37;21.30;1.00
4054;DHT22;2042;47.956;9.222;2022-10-31T13:07:10;21.40;1.00
4054;DHT22;2042;47.956;9.222;2022-10-31T13:09:48;21.30;1.00
4054;DHT22;2042;47.956;9.222;2022-10-31T13:12:18;20.90;1.00
4054;DHT22;2042;47.956;9.222;2022-10-31T13:15:00;20.60;1.00
4054;DHT22;2042;47.956;9.222;2022-10-31T13:17:43;20.30;1.00
4054;DHT22;2042;47.956;9.222;2022-10-31T13:20:20;20.00;1.00
4054;DHT22;2042;47.956;9.222;2022-10-31T13:22:52;19.70;1.00
4054;DHT22;2042;47.956;9.222;2022-10-31T13:25:28;19.30;1.00
4054;DHT22;2042;47.956;9.222;2022-10-31T13:30:47;18.90;1.00
4054;DHT22;2042;47.956;9.222;2022-10-31T13:33:18;18.70;1.00
4054;DHT22;2042;47.956;9.222;2022-10-31T13:35:47;18.70;1.00
4054;DHT22;2042;47.956;9.222;2022-10-31T13:38:50;18.60;1.00
4054;DHT22;2042;47.956;9.222;2022-10-31T13:41:38;18.50;1.00
4054;DHT22;2042;47.956;9.222;2022-10-31T13:44:21;18.20;1.00
4054;DHT22;2042;47.956;9.222;2022-10-31T13:46:51;18.00;1.00
4054;DHT22;2042;47.956;9.222;2022-10-31T13:54:49;17.30;1.00
4054;DHT22;2042;47.956;9.222;2022-10-31T14:00:02;17.10;1.00
4054;DHT22;2042;47.956;9.222;2022-10-31T14:02:34;17.10;1.00
4054;DHT22;2042;47.956;9.222;2022-10-31T14:05:21;17.00;1.00
4054;DHT22;2042;47.956;9.222;2022-10-31T14:07:47;17.00;1.00
4054;DHT22;2042;47.956;9.222;2022-10-31T14:13:14;17.00;1.00
4054;DHT22;2042;47.956;9.222;2022-10-31T14:15:51;16.90;1.00
4054;DHT22;2042;47.956;9.222;2022-10-31T14:18:38;16.80;1.00
4054;DHT22;2042;47.956;9.222;2022-10-31T14:23:49;16.60;1.00
4054;DHT22;2042;47.956;9.222;2022-10-31T14:31:35;16.40;1.00
4054;DHT22;2042;47.956;9.222;2022-10-31T14:39:26;16.10;1.00
4054;DHT22;2042;47.956;9.222;2022-10-31T14:47:19;15.90;1.00
4054;DHT22;2042;47.956;9.222;2022-10-31T14:52:28;15.80;1.00
4054;DHT22;2042;47.956;9.222;2022-10-31T14:54:55;15.90;1.00
4054;DHT22;2042;47.956;9.222;2022-10-31T14:57:29;15.80;1.00
4054;DHT22;2042;47.956;9.222;2022-10-31T15:00:00;15.70;1.00
4054;DHT22;2042;47.956;9.222;2022-10-31T15:02:34;15.60;1.00
4054;DHT22;2042;47.956;9.222;2022-10-31T15:05:08;15.40;1.00
4054;DHT22;2042;47.956;9.222;2022-10-31T15:07:34;15.30;1.00
4054;DHT22;2042;47.956;9.222;2022-10-31T15:10:01;15.20;1.00
4054;DHT22;2042;47.956;9.222;2022-10-31T15:12:35;15.10;1.00
4054;DHT22;2042;47.956;9.222;2022-10-31T15:15:14;14.90;1.00
4054;DHT22;2042;47.956;9.222;2022-10-31T15:17:58;14.80;1.00
4054;DHT22;2042;47.956;9.222;2022-10-31T15:20:38;14.60;1.00
4054;DHT22;2042;47.956;9.222;2022-10-31T15:23:11;14.50;1.00
4054;DHT22;2042;47.956;9.222;2022-10-31T15:25:40;14.30;1.00
4054;DHT22;2042;47.956;9.222;2022-10-31T15:28:15;14.20;1.00
4054;DHT22;2042;47.956;9.222;2022-10-31T15:30:54;14.00;1.00
4054;DHT22;2042;47.956;9.222;2022-10-31T15:33:28;13.90;1.00
4054;DHT22;2042;47.956;9.222;2022-10-31T15:35:56;13.80;1.00
4054;DHT22;2042;47.956;9.222;2022-10-31T15:38:23;13.60;1.00
4054;DHT22;2042;47.956;9.222;2022-10-31T15:43:47;13.30;1.00
4054;DHT22;2042;47.956;9.222;2022-10-31T15:46:13;13.20;1.00
4054;DHT22;2042;47.956;9.222;2022-10-31T15:48:44;13.10;1.00
4054;DHT22;2042;47.956;9.222;2022-10-31T15:51:10;12.90;1.00
4054;DHT22;2042;47.956;9.222;2022-10-31T15:56:11;12.60;1.00
4054;DHT22;2042;47.956;9.222;2022-10-31T15:58:46;12.40;1.00
4054;DHT22;2042;47.956;9.222;2022-10-31T16:01:32;12.20;1.00
4054;DHT22;2042;47.956;9.222;2022-10-31T16:06:38;11.80;1.00
4054;DHT22;2042;47.956;9.222;2022-10-31T16:09:21;11.60;1.00
4054;DHT22;2042;47.956;9.222;2022-10-31T16:11:47;11.50;1.00
4054;DHT22;2042;47.956;9.222;2022-10-31T16:14:17;11.40;1.00
4054;DHT22;2042;47.956;9.222;2022-10-31T16:16:46;11.40;1.00
4054;DHT22;2042;47.956;9.222;2022-10-31T16:21:49;11.10;1.00
4054;DHT22;2042;47.956;9.222;2022-10-31T16:24:26;10.90;1.00
4054;DHT22;2042;47.956;9.222;2022-10-31T16:26:57;10.70;1.00
4054;DHT22;2042;47.956;9.222;2022-10-31T16:29:31;10.60;1.00
4054;DHT22;2042;47.956;9.222;2022-10-31T16:31:57;10.50;1.00
4054;DHT22;2042;47.956;9.222;2022-10-31T16:34:24;10.40;1.00
4054;DHT22;2042;47.956;9.222;2022-10-31T16:36:50;10.40;1.00
4054;DHT22;2042;47.956;9.222;2022-10-31T16:39:15;10.30;1.00
4054;DHT22;2042;47.956;9.222;2022-10-31T16:41:45;10.10;1.00
4054;DHT22;2042;47.956;9.222;2022-10-31T16:44:18;10.10;1.00
4054;DHT22;2042;47.956;9.222;2022-10-31T16:46:44;10.00;1.00
4054;DHT22;2042;47.956;9.222;2022-10-31T16:49:10;9.90;1.00
4054;DHT22;2042;47.956;9.222;2022-10-31T16:51:36;9.80;1.00
4054;DHT22;2042;47.956;9.222;2022-10-31T16:54:02;9.70;1.00
4054;DHT22;2042;47.956;9.222;2022-10-31T16:56:30;9.60;1.00
4054;DHT22;2042;47.956;9.222;2022-10-31T16:59:00;9.50;1.00
4054;DHT22;2042;47.956;9.222;2022-10-31T17:01:27;9.50;1.00
4054;DHT22;2042;47.956;9.222;2022-10-31T17:03:53;9.40;1.00
4054;DHT22;2042;47.956;9.222;2022-10-31T17:06:19;9.30;1.00
4054;DHT22;2042;47.956;9.222;2022-10-31T17:08:44;9.30;1.00
4054;DHT22;2042;47.956;9.222;2022-10-31T17:11:22;9.20;1.00
4054;DHT22;2042;47.956;9.222;2022-10-31T17:13:50;9.10;14.40
4054;DHT22;2042;47.956;9.222;2022-10-31T17:18:41;9.10;1.00
4054;DHT22;2042;47.956;9.222;2022-10-31T17:21:18;9.10;1.40
4054;DHT22;2042;47.956;9.222;2022-10-31T17:23:45;9.00;1.20
4054;DHT22;2042;47.956;9.222;2022-10-31T17:26:11;8.90;1.30
4054;DHT22;2042;47.956;9.222;2022-10-31T17:28:37;8.80;1.20
4054;DHT22;2042;47.956;9.222;2022-10-31T17:31:02;8.70;1.00
4054;DHT22;2042;47.956;9.222;2022-10-31T17:33:28;8.60;1.60
4054;DHT22;2042;47.956;9.222;2022-10-31T17:35:54;8.60;2.20
4054;DHT22;2042;47.956;9.222;2022-10-31T17:38:19;8.50;2.50
4054;DHT22;2042;47.956;9.222;2022-10-31T17:40:45;8.50;2.80
4054;DHT22;2042;47.956;9.222;2022-10-31T17:43:11;8.50;2.90
4054;DHT22;2042;47.956;9.222;2022-10-31T17:45:38;8.40;2.70
4054;DHT22;2042;47.956;9.222;2022-10-31T17:48:05;8.30;2.70
4054;DHT22;2042;47.956;9.222;2022-10-31T17:50:30;8.30;3.00
4054;DHT22;2042;47.956;9.222;2022-10-31T17:52:57;8.30;3.30
4054;DHT22;2042;47.956;9.222;2022-10-31T17:57:49;8.30;12.20
4054;DHT22;2042;47.956;9.222;2022-10-31T18:00:17;8.20;14.60
4054;DHT22;2042;47.956;9.222;2022-10-31T18:02:45;8.20;5.20
4054;DHT22;2042;47.956;9.222;2022-10-31T18:05:11;8.20;5.20
4054;DHT22;2042;47.956;9.222;2022-10-31T18:07:37;8.10;4.70
4054;DHT22;2042;47.956;9.222;2022-10-31T18:10:04;8.00;4.70
4054;DHT22;2042;47.956;9.222;2022-10-31T18:12:30;8.00;4.70
4054;DHT22;2042;47.956;9.222;2022-10-31T18:14:58;7.90;4.70
4054;DHT22;2042;47.956;9.222;2022-10-31T18:17:24;7.90;4.80
4054;DHT22;2042;47.956;9.222;2022-10-31T18:19:50;7.80;4.60
4054;DHT22;2042;47.956;9.222;2022-10-31T18:22:15;7.70;4.70
4054;DHT22;2042;47.956;9.222;2022-10-31T18:24:41;7.70;5.80
4054;DHT22;2042;47.956;9.222;2022-10-31T18:27:06;7.80;7.60
4054;DHT22;2042;47.956;9.222;2022-10-31T18:29:32;7.80;7.70
4054;DHT22;2042;47.956;9.222;2022-10-31T18:31:58;7.70;7.40
4054;DHT22;2042;47.956;9.222;2022-10-31T18:34:24;7.70;7.20
4054;DHT22;2042;47.956;9.222;2022-10-31T18:36:51;7.60;7.20
4054;DHT22;2042;47.956;9.222;2022-10-31T18:39:17;7.60;8.10
4054;DHT22;2042;47.956;9.222;2022-10-31T18:41:43;7.60;8.30
4054;DHT22;2042;47.956;9.222;2022-10-31T18:44:08;7.60;8.60
4054;DHT22;2042;47.956;9.222;2022-10-31T18:46:35;7.60;8.40
4054;DHT22;2042;47.956;9.222;2022-10-31T18:49:02;7.40;5.80
4054;DHT22;2042;47.956;9.222;2022-10-31T18:53:59;7.10;6.00
4054;DHT22;2042;47.956;9.222;2022-10-31T18:56:25;7.10;7.90
4054;DHT22;2042;47.956;9.222;2022-10-31T18:58:51;7.10;8.20
4054;DHT22;2042;47.956;9.222;2022-10-31T19:01:18;7.10;8.90
4054;DHT22;2042;47.956;9.222;2022-10-31T19:03:44;7.20;9.50
4054;DHT22;2042;47.956;9.222;2022-10-31T19:06:10;7.20;9.80
4054;DHT22;2042;47.956;9.222;2022-10-31T19:08:37;7.20;10.30
4054;DHT22;2042;47.956;9.222;2022-10-31T19:11:09;7.20;10.50
4054;DHT22;2042;47.956;9.222;2022-10-31T19:13:35;7.20;10.60
4054;DHT22;2042;47.956;9.222;2022-10-31T19:16:13;7.20;10.70
4054;DHT22;2042;47.956;9.222;2022-10-31T19:18:40;7.20;11.00
4054;DHT22;2042;47.956;9.222;2022-10-31T19:21:11;7.30;11.90
4054;DHT22;2042;47.956;9.222;2022-10-31T19:23:38;7.40;12.80
4054;DHT22;2042;47.956;9.222;2022-10-31T19:26:04;7.50;13.10
4054;DHT22;2042;47.956;9.222;2022-10-31T19:28:34;7.60;13.10
4054;DHT22;2042;47.956;9.222;2022-10-31T19:31:00;7.60;12.80
4054;DHT22;2042;47.956;9.222;2022-10-31T19:33:26;7.50;12.60
4054;DHT22;2042;47.956;9.222;2022-10-31T19:38:28;7.50;12.70
4054;DHT22;2042;47.956;9.222;2022-10-31T19:41:15;7.50;12.90
4054;DHT22;2042;47.956;9.222;2022-10-31T19:43:41;7.50;13.10
4054;DHT22;2042;47.956;9.222;2022-10-31T19:46:09;7.50;13.20
4054;DHT22;2042;47.956;9.222;2022-10-31T19:48:38;7.40;15.00
4054;DHT22;2042;47.956;9.222;2022-10-31T19:51:08;7.40;23.30
4054;DHT22;2042;47.956;9.222;2022-10-31T19:53:35;7.30;12.60
4054;DHT22;2042;47.956;9.222;2022-10-31T19:56:01;7.30;13.20
4054;DHT22;2042;47.956;9.222;2022-10-31T19:58:28;7.30;13.10
4054;DHT22;2042;47.956;9.222;2022-10-31T20:00:54;7.30;13.10
4054;DHT22;2042;47.956;9.222;2022-10-31T20:03:20;7.20;13.00
4054;DHT22;2042;47.956;9.222;2022-10-31T20:05:46;7.20;13.10
4054;DHT22;2042;47.956;9.222;2022-10-31T20:08:14;7.20;13.30
4054;DHT22;2042;47.956;9.222;2022-10-31T20:10:40;7.20;13.40
4054;DHT22;2042;47.956;9.222;2022-10-31T20:13:06;7.20;13.40
4054;DHT22;2042;47.956;9.222;2022-10-31T20:15:33;7.20;13.50
4054;DHT22;2042;47.956;9.222;2022-10-31T20:17:59;7.20;13.60
4054;DHT22;2042;47.956;9.222;2022-10-31T20:20:24;7.20;13.70
4054;DHT22;2042;47.956;9.222;2022-10-31T20:22:50;7.20;13.90
4054;DHT22;2042;47.956;9.222;2022-10-31T20:25:16;7.20;14.10
4054;DHT22;2042;47.956;9.222;2022-10-31T20:27:41;7.20;14.10
4054;DHT22;2042;47.956;9.222;2022-10-31T20:30:07;7.20;14.30